Rechercher aéroport 
image banner adimage banner ad
image banner ad

SDYX - Campo Maior Airport

Situé à Campo Maior, Brazil

ICAO - SDYX, IATA -

Données fournies par Airmate  

Information générale

Coordonnées: S4°51'15" W42°15'38"
Élévation : 488 feet MSL.
Variation magnétique : -21° East
Voir autres Aéroports à Piauí

Données opérationnelles

Accessible au public
Heure actuelle UTC:
Heure actuelle locale:
METAR: SBTE 181300Z 09003KT 9999 SCT017 BKN020 BKN090 28/24 Q1011
TAF: TAF SBTE 180855Z 1812/1824 32005KT 9999 SCT020 TX35/1818Z TN27/1824Z BECMG 1812/1814 14005KT BECMG 1820/1822 20005KT RMK PGW
Voir NOTAMs / SUP AIP / TFR affectant cet aéroport [VIEW]
Fréquences de communication: [VIEW]

Pistes:

Identifiant RWYQFULongueur (ft)Largeur (ft)SurfaceLDA (ft)
13393759ASPH
31393759ASPH

Coordonnées de l'aéroport

Adresse: Campo Maior Brazil

Vue satellite de SDYX